createdAt,value
2023-04-19T00:01:50.097Z,52.42
2023-04-19T00:04:18.388Z,52.33
2023-04-19T00:06:47.295Z,52.83
2023-04-19T00:09:15.030Z,52.71
2023-04-19T00:11:42.694Z,52.86
2023-04-19T00:14:10.037Z,52.88
2023-04-19T00:16:37.343Z,53.74
2023-04-19T00:19:04.738Z,53.87
2023-04-19T00:21:32.140Z,53.13
2023-04-19T00:23:59.845Z,53.18
2023-04-19T00:26:27.718Z,53.45
2023-04-19T00:28:55.675Z,53.21
2023-04-19T00:31:23.151Z,53.17
2023-04-19T00:33:51.312Z,52.17
2023-04-19T00:36:19.264Z,51.89
2023-04-19T00:38:48.578Z,52.20
2023-04-19T00:41:16.432Z,51.72
2023-04-19T00:43:43.697Z,51.64
2023-04-19T00:46:11.503Z,51.27
2023-04-19T00:48:39.694Z,51.06
2023-04-19T00:51:10.454Z,51.17
2023-04-19T00:53:39.240Z,51.26
2023-04-19T00:56:07.263Z,51.02
2023-04-19T00:58:34.689Z,50.87
2023-04-19T01:01:04.646Z,50.76
2023-04-19T01:03:32.583Z,50.72
2023-04-19T01:06:00.310Z,50.66
2023-04-19T01:08:27.980Z,50.39
2023-04-19T01:10:55.425Z,50.24
2023-04-19T01:13:22.815Z,49.97
2023-04-19T01:15:51.641Z,50.03
2023-04-19T01:18:21.919Z,50.18
2023-04-19T01:20:49.692Z,50.23
2023-04-19T01:23:17.224Z,50.40
2023-04-19T01:25:45.033Z,50.64
2023-04-19T01:28:12.916Z,50.49
2023-04-19T01:30:40.673Z,50.62
2023-04-19T01:33:08.067Z,50.44
2023-04-19T01:35:35.427Z,50.58
2023-04-19T01:38:03.502Z,50.44
2023-04-19T01:40:30.882Z,50.36
2023-04-19T01:42:58.823Z,50.73
2023-04-19T01:45:26.759Z,51.26
2023-04-19T01:47:54.473Z,51.51
2023-04-19T01:50:22.419Z,51.34
2023-04-19T01:52:49.724Z,52.00
2023-04-19T01:55:18.058Z,51.90
2023-04-19T01:57:46.034Z,52.06
2023-04-19T02:00:13.627Z,52.01
2023-04-19T02:02:44.316Z,51.74
2023-04-19T02:05:11.815Z,51.21
2023-04-19T02:07:39.745Z,51.51
2023-04-19T02:10:09.917Z,51.44
2023-04-19T02:12:37.956Z,51.79
2023-04-19T02:15:05.698Z,51.76
2023-04-19T02:17:36.279Z,51.83
2023-04-19T02:20:04.787Z,51.79
2023-04-19T02:22:32.438Z,52.24
2023-04-19T02:24:59.748Z,52.88
2023-04-19T02:27:32.267Z,53.17
2023-04-19T02:30:00.430Z,53.17
2023-04-19T02:32:28.478Z,52.85
2023-04-19T02:34:56.410Z,52.75
2023-04-19T02:37:23.786Z,53.09
2023-04-19T02:39:51.597Z,52.85
2023-04-19T02:42:18.831Z,52.46
2023-04-19T02:44:46.153Z,53.10
2023-04-19T02:47:13.509Z,53.78
2023-04-19T02:49:41.574Z,53.83
2023-04-19T02:52:10.990Z,54.58
2023-04-19T02:54:41.669Z,54.45
2023-04-19T02:57:09.449Z,54.52
2023-04-19T02:59:37.826Z,55.29
2023-04-19T03:02:05.738Z,55.18
2023-04-19T03:04:33.224Z,55.45
2023-04-19T03:07:01.462Z,56.98
2023-04-19T03:09:28.904Z,57.11
2023-04-19T03:11:56.308Z,56.56
2023-04-19T03:14:23.579Z,57.38
2023-04-19T03:16:51.195Z,58.04
2023-04-19T03:19:19.453Z,58.76
2023-04-19T03:21:51.678Z,58.39
2023-04-19T03:24:27.310Z,57.74
2023-04-19T03:26:54.913Z,58.09
2023-04-19T03:29:26.857Z,58.05
2023-04-19T03:32:01.259Z,57.68
2023-04-19T03:34:30.383Z,57.69
2023-04-19T03:36:58.268Z,57.99
2023-04-19T03:39:25.617Z,58.84
2023-04-19T03:41:58.303Z,58.89
2023-04-19T03:44:46.184Z,59.74
2023-04-19T03:47:15.787Z,60.41
2023-04-19T03:49:46.395Z,61.15
2023-04-19T03:52:14.210Z,61.14
2023-04-19T03:54:41.452Z,61.60
2023-04-19T03:57:17.766Z,62.28
2023-04-19T03:59:45.697Z,62.28
2023-04-19T04:02:13.158Z,62.83
2023-04-19T04:04:41.302Z,62.73
2023-04-19T04:07:09.081Z,61.90
2023-04-19T04:09:36.323Z,62.14
2023-04-19T04:12:03.726Z,62.80
2023-04-19T04:14:32.013Z,62.78
2023-04-19T04:17:00.920Z,62.18
2023-04-19T04:19:28.359Z,62.71
2023-04-19T04:21:55.990Z,63.23
2023-04-19T04:24:24.442Z,63.73
2023-04-19T04:27:20.367Z,64.21
2023-04-19T04:29:49.683Z,64.33
2023-04-19T04:32:18.315Z,66.08
2023-04-19T04:34:47.586Z,65.61
2023-04-19T04:37:24.388Z,65.99
2023-04-19T04:39:52.811Z,66.75
2023-04-19T04:42:21.640Z,65.61
2023-04-19T04:44:50.988Z,65.87
2023-04-19T04:47:18.265Z,65.78
2023-04-19T04:49:53.068Z,65.93
2023-04-19T04:52:20.464Z,67.27
2023-04-19T04:55:01.857Z,66.95
2023-04-19T04:57:33.379Z,68.83
2023-04-19T05:00:02.424Z,69.18
2023-04-19T05:02:36.763Z,69.40
2023-04-19T05:05:04.361Z,69.51
2023-04-19T05:07:33.499Z,69.55
2023-04-19T05:10:02.784Z,68.81
2023-04-19T05:12:39.150Z,68.12
2023-04-19T05:15:06.951Z,67.88
2023-04-19T05:17:34.897Z,68.14
2023-04-19T05:20:02.489Z,67.28
2023-04-19T05:22:31.052Z,65.36
2023-04-19T05:24:59.131Z,64.11
2023-04-19T05:27:26.789Z,63.63
2023-04-19T05:29:54.581Z,63.06
2023-04-19T05:32:23.127Z,63.67
2023-04-19T05:34:54.959Z,62.76
2023-04-19T05:37:26.966Z,61.77
2023-04-19T05:39:54.398Z,63.04
2023-04-19T05:42:21.776Z,61.85
2023-04-19T05:44:49.490Z,62.00
2023-04-19T05:47:17.713Z,62.24
2023-04-19T05:49:58.352Z,61.74
2023-04-19T05:52:31.150Z,61.45
2023-04-19T05:55:00.427Z,58.90
2023-04-19T05:57:28.811Z,59.31
2023-04-19T05:59:56.992Z,58.89
2023-04-19T06:02:29.578Z,58.65
2023-04-19T06:05:09.312Z,56.22
2023-04-19T06:07:43.135Z,54.28
2023-04-19T06:10:17.811Z,51.89
2023-04-19T06:12:45.835Z,50.92
2023-04-19T06:15:13.603Z,50.63
2023-04-19T06:17:42.279Z,49.50
2023-04-19T06:20:10.291Z,48.47
2023-04-19T06:22:45.228Z,48.30
2023-04-19T06:25:12.860Z,47.52
2023-04-19T06:27:40.774Z,48.63
2023-04-19T06:30:08.837Z,46.31
2023-04-19T06:32:36.673Z,46.40
2023-04-19T06:35:06.306Z,46.26
2023-04-19T06:37:34.036Z,46.93
2023-04-19T06:40:02.133Z,48.05
2023-04-19T06:42:29.578Z,49.31
2023-04-19T06:44:57.502Z,48.84
2023-04-19T06:47:24.863Z,48.51
2023-04-19T06:49:52.196Z,48.47
2023-04-19T06:52:19.688Z,49.16
2023-04-19T06:54:50.961Z,48.92
2023-04-19T06:57:19.325Z,48.38
2023-04-19T06:59:47.259Z,48.89
2023-04-19T07:02:14.512Z,48.52
2023-04-19T07:04:42.718Z,48.85
2023-04-19T07:07:10.275Z,48.32
2023-04-19T07:09:37.914Z,48.84
2023-04-19T07:12:06.194Z,49.92
2023-04-19T07:14:34.302Z,49.52
2023-04-19T07:17:04.483Z,49.50
2023-04-19T07:19:31.896Z,48.09
2023-04-19T07:21:59.455Z,47.98
2023-04-19T07:24:29.701Z,47.46
2023-04-19T07:26:57.913Z,45.98
2023-04-19T07:29:25.273Z,45.64
2023-04-19T07:31:55.427Z,45.97
2023-04-19T07:34:22.884Z,46.26
2023-04-19T07:36:50.494Z,45.34
2023-04-19T07:39:17.754Z,44.04
2023-04-19T07:41:51.927Z,44.91
2023-04-19T07:44:20.794Z,43.85
2023-04-19T07:46:48.432Z,44.82
2023-04-19T07:49:15.798Z,43.71
2023-04-19T07:51:43.876Z,43.83
2023-04-19T07:54:12.542Z,43.75
2023-04-19T07:56:40.216Z,45.36
2023-04-19T07:59:09.309Z,43.33
2023-04-19T08:01:37.218Z,43.84
2023-04-19T08:04:05.312Z,43.34
2023-04-19T08:06:33.285Z,42.68
2023-04-19T08:09:01.122Z,45.36
2023-04-19T08:11:28.522Z,45.13
2023-04-19T08:14:08.823Z,44.23
2023-04-19T08:17:19.238Z,45.14
2023-04-19T08:19:31.396Z,44.49
2023-04-19T08:21:59.632Z,43.39
2023-04-19T08:24:26.985Z,43.02
2023-04-19T08:26:54.656Z,42.63
2023-04-19T08:29:22.316Z,41.58
2023-04-19T08:31:50.058Z,42.55
2023-04-19T08:34:17.639Z,40.76
2023-04-19T08:36:55.940Z,43.40
2023-04-19T08:39:33.677Z,41.61
2023-04-19T08:42:08.618Z,41.76
2023-04-19T08:44:53.695Z,38.70
2023-04-19T08:47:30.815Z,39.85
2023-04-19T08:50:17.359Z,40.12
2023-04-19T08:52:57.372Z,39.52
2023-04-19T08:55:29.506Z,38.75
2023-04-19T08:57:58.656Z,39.69
2023-04-19T09:00:26.496Z,41.72
2023-04-19T09:02:57.655Z,39.78
2023-04-19T09:05:25.241Z,40.24
2023-04-19T09:07:52.812Z,38.76
2023-04-19T09:10:20.900Z,38.58
2023-04-19T09:13:02.297Z,40.17
2023-04-19T09:15:40.781Z,40.87
2023-04-19T09:18:10.074Z,40.42
2023-04-19T09:20:38.948Z,40.73
2023-04-19T09:23:08.297Z,39.74
2023-04-19T09:25:55.393Z,39.45
2023-04-19T09:28:24.481Z,39.73
2023-04-19T09:33:32.137Z,39.94
2023-04-19T09:36:00.286Z,38.81
2023-04-19T09:38:28.211Z,39.07
2023-04-19T09:41:15.894Z,38.84
2023-04-19T09:46:30.443Z,38.53
2023-04-19T09:49:25.333Z,37.47
2023-04-19T09:51:59.050Z,37.21
2023-04-19T09:54:30.505Z,38.54
2023-04-19T09:57:00.862Z,39.05
2023-04-19T09:59:28.785Z,37.30
2023-04-19T10:01:56.661Z,37.55
2023-04-19T10:04:29.408Z,37.50
2023-04-19T10:07:25.280Z,36.85
2023-04-19T10:10:05.015Z,37.35
2023-04-19T10:12:59.030Z,38.84
2023-04-19T10:15:33.780Z,37.04
2023-04-19T10:18:08.224Z,35.77
2023-04-19T10:20:54.941Z,35.94
2023-04-19T10:23:23.126Z,34.83
2023-04-19T10:25:55.750Z,36.94
2023-04-19T10:28:23.736Z,34.81
2023-04-19T10:30:55.806Z,33.89
2023-04-19T10:36:19.268Z,30.90
2023-04-19T10:38:51.483Z,29.44
2023-04-19T10:41:19.372Z,28.68
2023-04-19T10:43:56.698Z,29.54
2023-04-19T10:46:29.246Z,32.55
2023-04-19T10:49:03.772Z,32.32
2023-04-19T10:51:36.273Z,31.13
2023-04-19T10:54:03.565Z,28.55
2023-04-19T10:56:34.437Z,30.24
2023-04-19T10:59:12.404Z,29.33
2023-04-19T11:01:45.375Z,28.01
2023-04-19T11:04:14.541Z,27.39
2023-04-19T11:06:52.491Z,25.66
2023-04-19T11:09:25.766Z,27.34
2023-04-19T11:11:54.456Z,28.37
2023-04-19T11:14:25.401Z,29.12
2023-04-19T11:16:52.717Z,28.41
2023-04-19T11:19:20.587Z,27.22
2023-04-19T11:21:48.768Z,28.50
2023-04-19T11:24:18.830Z,30.54
2023-04-19T11:26:47.243Z,32.06
2023-04-19T11:29:15.615Z,32.60
2023-04-19T11:31:46.703Z,35.24
2023-04-19T11:34:15.343Z,35.34
2023-04-19T11:36:52.634Z,33.12
2023-04-19T11:39:21.834Z,33.21
2023-04-19T11:41:49.150Z,30.06
2023-04-19T11:44:20.110Z,31.18
2023-04-19T11:47:01.411Z,28.35
2023-04-19T11:49:30.293Z,24.99
2023-04-19T11:52:03.070Z,25.16
2023-04-19T11:54:33.637Z,27.98
2023-04-19T11:57:03.591Z,27.90
2023-04-19T11:59:32.354Z,26.00
2023-04-19T12:02:10.425Z,25.78
2023-04-19T12:04:39.725Z,25.26
2023-04-19T12:07:07.568Z,26.63
2023-04-19T12:09:36.612Z,26.62
2023-04-19T12:12:04.171Z,27.97
2023-04-19T12:14:31.674Z,27.77
2023-04-19T12:17:05.606Z,29.97
2023-04-19T12:19:42.955Z,30.75
2023-04-19T12:22:12.690Z,27.73
2023-04-19T12:24:40.856Z,25.32
2023-04-19T12:27:08.436Z,25.61
2023-04-19T12:29:36.189Z,25.36
2023-04-19T12:32:04.122Z,23.38
2023-04-19T12:34:32.111Z,23.77
2023-04-19T12:36:59.530Z,24.15
2023-04-19T12:39:28.841Z,23.86
2023-04-19T12:41:57.428Z,27.44
2023-04-19T12:44:25.227Z,25.64
2023-04-19T12:46:55.271Z,23.03
2023-04-19T12:49:22.901Z,23.06
2023-04-19T12:51:50.772Z,24.45
2023-04-19T12:54:18.524Z,25.60
2023-04-19T12:56:46.319Z,24.87
2023-04-19T12:59:14.205Z,21.73
2023-04-19T13:01:42.053Z,20.08
2023-04-19T13:04:12.113Z,18.06
2023-04-19T13:06:40.817Z,21.71
2023-04-19T13:09:14.304Z,23.13
2023-04-19T13:11:42.670Z,24.56
2023-04-19T13:14:11.050Z,28.18
2023-04-19T13:16:38.463Z,29.80
2023-04-19T13:19:06.443Z,30.17
2023-04-19T13:21:33.726Z,30.92
2023-04-19T13:24:01.422Z,29.63
2023-04-19T13:26:29.452Z,29.93
2023-04-19T13:28:57.311Z,30.91
2023-04-19T13:31:25.150Z,29.33
2023-04-19T13:33:52.779Z,30.15
2023-04-19T13:36:20.568Z,30.51
2023-04-19T13:38:48.464Z,29.69
2023-04-19T13:41:15.823Z,23.73
2023-04-19T13:43:43.548Z,20.55
2023-04-19T13:46:11.628Z,18.21
2023-04-19T13:48:38.899Z,17.51
2023-04-19T13:51:06.905Z,19.20
2023-04-19T13:53:35.057Z,23.31
2023-04-19T13:56:02.623Z,25.12
2023-04-19T13:58:29.959Z,27.04
2023-04-19T14:00:57.316Z,29.56
2023-04-19T14:03:25.517Z,28.99
2023-04-19T14:05:52.923Z,30.70
2023-04-19T14:08:21.034Z,30.62
2023-04-19T14:10:48.961Z,30.61
2023-04-19T14:13:16.450Z,30.18
2023-04-19T14:15:43.764Z,31.77
2023-04-19T14:18:11.703Z,33.18
2023-04-19T14:20:41.031Z,33.18
2023-04-19T14:23:09.451Z,34.71
2023-04-19T14:25:37.315Z,34.97
2023-04-19T14:28:04.732Z,33.58
2023-04-19T14:30:32.324Z,33.81
2023-04-19T14:32:59.668Z,32.21
2023-04-19T14:35:27.352Z,31.99
2023-04-19T14:37:55.159Z,34.21
2023-04-19T14:40:22.688Z,36.01
2023-04-19T14:42:50.318Z,32.80
2023-04-19T14:45:17.676Z,30.00
2023-04-19T14:47:45.421Z,26.74
2023-04-19T14:50:12.762Z,27.14
2023-04-19T14:52:39.997Z,25.77
2023-04-19T14:55:07.746Z,29.40
2023-04-19T14:57:35.071Z,31.17
2023-04-19T15:00:02.440Z,33.19
2023-04-19T15:02:30.286Z,28.81
2023-04-19T15:04:58.062Z,26.01
2023-04-19T15:07:26.317Z,27.21
2023-04-19T15:09:54.138Z,31.29
2023-04-19T15:12:21.490Z,33.65
2023-04-19T15:14:49.737Z,33.80
2023-04-19T15:17:17.129Z,33.62
2023-04-19T15:19:46.945Z,32.44
2023-04-19T15:22:14.343Z,31.14
2023-04-19T15:24:42.132Z,32.92
2023-04-19T15:27:09.487Z,34.10
2023-04-19T15:29:39.469Z,34.74
2023-04-19T15:32:06.942Z,32.75
2023-04-19T15:34:34.320Z,30.98
2023-04-19T15:37:02.388Z,30.08
2023-04-19T15:39:30.139Z,29.55
2023-04-19T15:41:58.649Z,28.34
2023-04-19T15:44:26.006Z,28.18
2023-04-19T15:46:53.707Z,29.77
2023-04-19T15:49:20.978Z,28.92
2023-04-19T15:51:48.949Z,27.44
2023-04-19T15:54:16.469Z,27.84
2023-04-19T15:56:44.259Z,27.73
2023-04-19T15:59:11.672Z,29.47
2023-04-19T16:01:39.369Z,32.44
2023-04-19T16:04:07.015Z,33.69
2023-04-19T16:06:34.857Z,36.23
2023-04-19T16:09:02.156Z,38.17
2023-04-19T16:11:30.632Z,40.30
2023-04-19T16:13:58.522Z,42.53
2023-04-19T16:16:27.100Z,43.90
2023-04-19T16:18:54.418Z,43.78
2023-04-19T16:21:22.327Z,43.34
2023-04-19T16:23:49.664Z,44.45
2023-04-19T16:26:16.941Z,44.93
2023-04-19T16:28:44.704Z,46.09
2023-04-19T16:31:12.244Z,46.58
2023-04-19T16:33:39.479Z,48.26
2023-04-19T16:36:06.895Z,48.24
2023-04-19T16:38:34.726Z,48.75
2023-04-19T16:41:04.619Z,49.48
2023-04-19T16:43:32.572Z,50.47
2023-04-19T16:46:00.365Z,50.14
2023-04-19T16:48:27.906Z,50.85
2023-04-19T16:50:55.488Z,51.63
2023-04-19T16:53:23.054Z,54.58
2023-04-19T16:55:50.689Z,58.29
2023-04-19T16:58:18.436Z,61.96
2023-04-19T17:00:46.482Z,65.18
2023-04-19T17:03:14.424Z,67.13
2023-04-19T17:05:41.871Z,70.49
2023-04-19T17:08:11.095Z,70.79
2023-04-19T17:10:39.010Z,71.07
2023-04-19T17:13:06.386Z,68.02
2023-04-19T17:15:34.313Z,65.56
2023-04-19T17:18:02.360Z,69.28
2023-04-19T17:20:29.804Z,73.11
2023-04-19T17:22:57.141Z,79.50
2023-04-19T17:25:24.483Z,82.47
2023-04-19T17:27:52.774Z,85.56
2023-04-19T17:30:20.133Z,89.63
2023-04-19T17:32:47.530Z,88.05
2023-04-19T17:35:15.035Z,95.33
2023-04-19T17:37:43.819Z,95.35
2023-04-19T17:40:11.453Z,98.72
2023-04-19T17:42:38.830Z,97.79
2023-04-19T17:45:11.044Z,99.98
2023-04-19T17:47:39.566Z,100.00
2023-04-19T17:50:08.152Z,100.00
2023-04-19T17:52:35.528Z,100.00
2023-04-19T17:55:04.704Z,100.00
2023-04-19T17:57:33.814Z,100.00
2023-04-19T18:00:06.069Z,100.00
2023-04-19T18:02:36.870Z,100.00
2023-04-19T18:05:04.915Z,100.00
2023-04-19T18:07:33.375Z,100.00
2023-04-19T18:10:00.851Z,100.00
2023-04-19T18:12:28.731Z,100.00
2023-04-19T18:14:56.454Z,100.00
2023-04-19T18:17:24.500Z,100.00
2023-04-19T18:19:52.282Z,100.00
2023-04-19T18:22:19.670Z,100.00
2023-04-19T18:24:47.553Z,100.00
2023-04-19T18:27:14.839Z,100.00
2023-04-19T18:29:42.167Z,100.00
2023-04-19T18:32:10.509Z,100.00
2023-04-19T18:34:38.296Z,100.00
2023-04-19T18:37:14.511Z,100.00
2023-04-19T18:39:42.577Z,100.00
2023-04-19T18:42:10.941Z,100.00
2023-04-19T18:44:52.836Z,100.00
2023-04-19T18:47:21.725Z,100.00
2023-04-19T18:50:02.807Z,100.00
2023-04-19T18:52:31.677Z,100.00
2023-04-19T18:54:59.581Z,100.00
2023-04-19T18:57:28.010Z,100.00
2023-04-19T18:59:56.241Z,100.00
2023-04-19T19:02:24.280Z,100.00
2023-04-19T19:04:57.865Z,100.00
2023-04-19T19:07:36.097Z,100.00
2023-04-19T19:10:17.017Z,100.00
2023-04-19T19:12:47.270Z,100.00
2023-04-19T19:15:15.122Z,100.00
2023-04-19T19:17:43.730Z,100.00
2023-04-19T19:20:12.170Z,100.00
2023-04-19T19:22:40.337Z,100.00
2023-04-19T19:25:08.455Z,100.00
2023-04-19T19:27:37.853Z,100.00
2023-04-19T19:30:07.863Z,100.00
2023-04-19T19:32:35.920Z,100.00
2023-04-19T19:35:05.587Z,100.00
2023-04-19T19:37:36.773Z,100.00
2023-04-19T19:40:06.653Z,100.00
2023-04-19T19:42:35.215Z,100.00
2023-04-19T19:45:04.177Z,100.00
2023-04-19T19:47:35.218Z,100.00
2023-04-19T19:52:37.495Z,100.00
2023-04-19T19:55:06.419Z,100.00
2023-04-19T20:00:31.796Z,100.00
2023-04-19T20:02:59.267Z,100.00
2023-04-19T20:05:27.625Z,100.00
2023-04-19T20:08:05.771Z,100.00
2023-04-19T20:10:33.444Z,100.00
2023-04-19T20:13:01.719Z,100.00
2023-04-19T20:15:30.302Z,100.00
2023-04-19T20:17:58.143Z,100.00
2023-04-19T20:20:26.385Z,100.00
2023-04-19T20:22:53.847Z,100.00
2023-04-19T20:25:21.596Z,100.00
2023-04-19T20:27:49.297Z,100.00
2023-04-19T20:30:16.606Z,100.00
2023-04-19T20:32:44.120Z,100.00
2023-04-19T20:35:12.457Z,100.00
2023-04-19T20:37:40.641Z,100.00
2023-04-19T20:40:11.254Z,100.00
2023-04-19T20:42:38.800Z,100.00
2023-04-19T20:45:14.418Z,100.00
2023-04-19T20:47:43.073Z,100.00
2023-04-19T20:50:11.298Z,100.00
2023-04-19T20:52:38.905Z,100.00
2023-04-19T20:55:07.087Z,100.00
2023-04-19T20:57:34.786Z,100.00
2023-04-19T21:00:02.491Z,100.00
2023-04-19T21:02:32.173Z,100.00
2023-04-19T21:04:59.874Z,100.00
2023-04-19T21:07:27.403Z,100.00
2023-04-19T21:09:54.733Z,100.00
2023-04-19T21:12:22.016Z,100.00
2023-04-19T21:14:52.326Z,100.00
2023-04-19T21:17:20.247Z,100.00
2023-04-19T21:19:48.064Z,100.00
2023-04-19T21:22:15.356Z,100.00
2023-04-19T21:24:43.323Z,100.00
2023-04-19T21:27:11.321Z,100.00
2023-04-19T21:29:39.324Z,100.00
2023-04-19T21:32:06.729Z,100.00
2023-04-19T21:34:34.491Z,100.00
2023-04-19T21:37:02.829Z,100.00
2023-04-19T21:39:30.331Z,100.00
2023-04-19T21:41:57.594Z,100.00
2023-04-19T21:44:25.568Z,100.00
2023-04-19T21:46:53.369Z,100.00
2023-04-19T21:49:21.602Z,100.00
2023-04-19T21:51:49.054Z,100.00
2023-04-19T21:54:26.469Z,100.00
2023-04-19T21:57:00.742Z,100.00
2023-04-19T21:59:28.447Z,100.00
2023-04-19T22:01:56.352Z,100.00
2023-04-19T22:04:24.270Z,100.00
2023-04-19T22:06:51.604Z,100.00
2023-04-19T22:09:19.513Z,100.00
2023-04-19T22:11:47.277Z,100.00
2023-04-19T22:14:14.591Z,100.00
2023-04-19T22:16:42.282Z,100.00
2023-04-19T22:19:10.061Z,100.00
2023-04-19T22:21:37.311Z,100.00
2023-04-19T22:24:05.433Z,100.00
2023-04-19T22:26:34.462Z,100.00
2023-04-19T22:29:02.193Z,100.00
2023-04-19T22:31:29.673Z,100.00
2023-04-19T22:33:57.527Z,100.00
2023-04-19T22:36:25.713Z,100.00
2023-04-19T22:38:53.021Z,100.00
2023-04-19T22:41:20.385Z,100.00
2023-04-19T22:43:47.869Z,100.00
2023-04-19T22:46:15.741Z,100.00
2023-04-19T22:48:43.077Z,100.00
2023-04-19T22:51:10.635Z,100.00
2023-04-19T22:53:39.075Z,100.00
2023-04-19T22:56:06.931Z,100.00
2023-04-19T22:58:34.160Z,100.00
2023-04-19T23:01:02.300Z,100.00
2023-04-19T23:03:30.136Z,100.00
2023-04-19T23:05:57.581Z,100.00
2023-04-19T23:08:25.168Z,100.00
2023-04-19T23:10:53.838Z,100.00
2023-04-19T23:13:21.326Z,100.00
2023-04-19T23:15:49.102Z,100.00
2023-04-19T23:18:17.597Z,100.00
2023-04-19T23:20:44.844Z,100.00
2023-04-19T23:23:12.428Z,100.00
2023-04-19T23:25:40.302Z,100.00
2023-04-19T23:28:07.561Z,100.00
2023-04-19T23:30:34.881Z,100.00
2023-04-19T23:33:02.386Z,100.00
2023-04-19T23:35:30.619Z,100.00
2023-04-19T23:37:58.727Z,100.00
2023-04-19T23:40:26.004Z,100.00
2023-04-19T23:42:53.249Z,100.00
2023-04-19T23:45:21.352Z,100.00
2023-04-19T23:47:49.008Z,100.00
2023-04-19T23:50:16.554Z,100.00
2023-04-19T23:52:43.865Z,100.00
2023-04-19T23:55:11.451Z,100.00
2023-04-19T23:57:39.418Z,100.00
